Terminal Aerodrome Forecast
Issued by NWS

Home | Current Version | Previous Version | Text Only | Print | Product List | Glossary On
Versions: 1 2 3 4 5 6 7 8 9 10 11 12 13 14 15 16 17 18 19 20 21 22 23 24 25 26 27 28 29
000
FTUS43 KDVN 021100 AAD
TAFBRL
TAF AMD
KBRL 021100Z 0211/0306 00000KT 1SM BR SCT006 BKN014
      TEMPO 0211/0214 1/4SM FG SCT001 OVC006
     FM021400 16004KT 2SM BR OVC008
     FM021800 15006KT 4SM -SHRA BR SCT020 BKN035
      TEMPO 0222/0302 3SM TSRA BR BKN015CB OVC025
     FM030200 31010KT P6SM OVC012=

USA.gov is the U.S. government's official web portal to all federal, state and local government web resources and services.